createdAt,value
2023-01-15T00:01:32.081Z,4.10
2023-01-15T00:04:04.308Z,5.60
2023-01-15T00:06:38.109Z,5.30
2023-01-15T00:09:08.817Z,3.40
2023-01-15T00:11:38.091Z,3.10
2023-01-15T00:14:07.637Z,3.30
2023-01-15T00:16:37.462Z,3.40
2023-01-15T00:19:11.680Z,3.20
2023-01-15T00:21:40.942Z,3.00
2023-01-15T00:24:28.927Z,3.10
2023-01-15T00:27:16.351Z,3.10
2023-01-15T00:29:45.445Z,3.20
2023-01-15T00:32:14.518Z,3.30
2023-01-15T00:34:43.176Z,3.60
2023-01-15T00:37:12.186Z,3.80
2023-01-15T00:39:40.830Z,4.30
2023-01-15T00:42:11.668Z,4.30
2023-01-15T00:44:40.823Z,4.00
2023-01-15T00:47:15.332Z,4.50
2023-01-15T00:49:45.860Z,5.30
2023-01-15T00:52:15.554Z,4.70
2023-01-15T00:54:45.601Z,5.60
2023-01-15T00:57:14.879Z,6.70
2023-01-15T00:59:44.205Z,5.90
2023-01-15T01:02:13.155Z,7.10
2023-01-15T01:04:42.345Z,6.90
2023-01-15T01:07:11.143Z,8.80
2023-01-15T01:09:40.482Z,6.50
2023-01-15T01:12:09.232Z,6.20
2023-01-15T01:14:39.112Z,6.10
2023-01-15T01:17:07.771Z,6.10
2023-01-15T01:19:37.204Z,5.10
2023-01-15T01:22:05.882Z,4.20
2023-01-15T01:24:34.656Z,5.70
2023-01-15T01:27:03.844Z,7.00
2023-01-15T01:29:32.789Z,4.20
2023-01-15T01:32:02.112Z,3.90
2023-01-15T01:34:31.347Z,3.40
2023-01-15T01:37:00.399Z,3.10
2023-01-15T01:39:29.333Z,3.40
2023-01-15T01:41:58.395Z,3.30
2023-01-15T01:44:34.010Z,3.00
2023-01-15T01:47:07.664Z,3.40
2023-01-15T01:49:39.797Z,3.40
2023-01-15T01:52:16.819Z,3.30
2023-01-15T01:54:48.228Z,2.90
2023-01-15T01:57:19.352Z,3.30
2023-01-15T01:59:48.977Z,3.50
2023-01-15T02:02:22.237Z,4.20
2023-01-15T02:04:51.940Z,3.90
2023-01-15T02:07:20.817Z,3.90
2023-01-15T02:09:49.843Z,3.70
2023-01-15T02:12:51.010Z,6.60
2023-01-15T02:15:29.437Z,7.10
2023-01-15T02:17:58.079Z,5.40
2023-01-15T02:20:37.121Z,6.90
2023-01-15T02:23:32.105Z,6.00
2023-01-15T02:26:26.764Z,6.20
2023-01-15T02:28:58.900Z,7.40
2023-01-15T02:31:34.037Z,5.00
2023-01-15T02:34:27.891Z,5.40
2023-01-15T02:37:20.536Z,5.70
2023-01-15T02:39:51.917Z,6.80
2023-01-15T02:42:23.824Z,6.70
2023-01-15T02:44:55.986Z,8.30
2023-01-15T02:47:28.457Z,7.20
2023-01-15T02:50:03.019Z,7.00
2023-01-15T02:52:52.441Z,6.20
2023-01-15T02:55:27.306Z,5.70
2023-01-15T02:58:00.013Z,5.50
2023-01-15T03:00:34.881Z,6.30
2023-01-15T03:03:06.444Z,17.90
2023-01-15T03:06:06.600Z,8.30
2023-01-15T03:08:36.483Z,5.50
2023-01-15T03:11:14.806Z,5.80
2023-01-15T03:13:43.576Z,6.30
2023-01-15T03:16:36.129Z,6.50
2023-01-15T03:19:29.726Z,6.30
2023-01-15T03:22:15.689Z,5.00
2023-01-15T03:25:14.305Z,4.80
2023-01-15T03:27:42.975Z,4.90
2023-01-15T03:30:16.028Z,4.60
2023-01-15T03:32:44.802Z,4.40
2023-01-15T03:35:44.411Z,4.20
2023-01-15T03:38:14.991Z,4.10
2023-01-15T03:41:20.226Z,4.70
2023-01-15T03:44:02.724Z,4.30
2023-01-15T03:46:54.725Z,5.50
2023-01-15T03:50:01.759Z,5.30
2023-01-15T03:53:03.314Z,4.90
2023-01-15T03:55:32.331Z,3.90
2023-01-15T03:58:12.642Z,4.00
2023-01-15T04:00:56.235Z,3.60
2023-01-15T04:03:27.027Z,3.90
2023-01-15T04:05:58.101Z,3.90
2023-01-15T04:08:31.647Z,3.70
2023-01-15T04:11:03.216Z,3.60
2023-01-15T04:13:32.537Z,4.00
2023-01-15T04:16:02.058Z,3.60
2023-01-15T04:18:30.929Z,3.50
2023-01-15T04:21:00.024Z,4.20
2023-01-15T04:23:29.078Z,5.10
2023-01-15T04:25:58.009Z,5.80
2023-01-15T04:28:27.119Z,4.80
2023-01-15T04:30:58.526Z,4.50
2023-01-15T04:33:27.622Z,5.90
2023-01-15T04:36:01.034Z,7.70
2023-01-15T04:38:30.447Z,9.40
2023-01-15T04:41:21.963Z,8.50
2023-01-15T04:44:09.441Z,7.40
2023-01-15T04:46:40.853Z,6.20
2023-01-15T04:49:14.082Z,6.00
2023-01-15T04:51:43.578Z,4.60
2023-01-15T04:54:15.224Z,4.70
2023-01-15T04:56:46.771Z,4.20
2023-01-15T04:59:18.368Z,4.00
2023-01-15T05:01:58.311Z,3.50
2023-01-15T05:04:32.717Z,3.90
2023-01-15T05:07:03.642Z,4.30
2023-01-15T05:09:33.151Z,4.90
2023-01-15T05:12:02.555Z,4.60
2023-01-15T05:14:31.697Z,5.30
2023-01-15T05:17:00.660Z,4.80
2023-01-15T05:19:29.634Z,4.20
2023-01-15T05:21:58.484Z,3.60
2023-01-15T05:24:27.754Z,7.90
2023-01-15T05:26:58.810Z,6.50
2023-01-15T05:29:28.283Z,6.90
2023-01-15T05:31:57.256Z,6.60
2023-01-15T05:34:26.221Z,5.20
2023-01-15T05:36:55.472Z,4.50
2023-01-15T05:39:24.517Z,4.60
2023-01-15T05:41:54.441Z,4.30
2023-01-15T05:44:26.851Z,4.20
2023-01-15T05:46:58.791Z,4.50
2023-01-15T05:49:30.212Z,4.20
2023-01-15T05:52:01.138Z,4.20
2023-01-15T05:54:33.476Z,4.50
2023-01-15T05:57:04.519Z,4.40
2023-01-15T05:59:34.175Z,4.00
2023-01-15T06:02:03.210Z,3.60
2023-01-15T06:04:32.739Z,3.40
2023-01-15T06:07:02.319Z,3.80
2023-01-15T06:09:31.229Z,10.80
2023-01-15T06:11:59.992Z,6.20
2023-01-15T06:14:28.862Z,3.70
2023-01-15T06:16:58.232Z,3.70
2023-01-15T06:19:27.706Z,3.60
2023-01-15T06:21:56.865Z,3.80
2023-01-15T06:24:25.708Z,3.80
2023-01-15T06:26:54.689Z,3.70
2023-01-15T06:29:23.457Z,4.10
2023-01-15T06:31:52.496Z,4.30
2023-01-15T06:34:21.054Z,4.90
2023-01-15T06:36:49.912Z,4.40
2023-01-15T06:39:18.826Z,4.30
2023-01-15T06:42:06.146Z,4.70
2023-01-15T06:44:53.680Z,6.80
2023-01-15T06:47:23.663Z,9.10
2023-01-15T06:49:56.544Z,5.20
2023-01-15T06:52:28.014Z,5.50
2023-01-15T06:54:57.200Z,13.00
2023-01-15T06:57:27.099Z,4.90
2023-01-15T06:59:56.219Z,4.30
2023-01-15T07:02:25.523Z,4.00
2023-01-15T07:04:54.668Z,4.70
2023-01-15T07:07:24.102Z,5.30
2023-01-15T07:09:53.469Z,5.00
2023-01-15T07:12:23.589Z,4.40
2023-01-15T07:14:53.518Z,3.80
2023-01-15T07:17:23.188Z,4.10
2023-01-15T07:19:52.132Z,4.10
2023-01-15T07:22:21.295Z,4.30
2023-01-15T07:24:50.392Z,4.30
2023-01-15T07:27:19.695Z,4.20
2023-01-15T07:29:50.276Z,4.60
2023-01-15T07:32:20.377Z,4.40
2023-01-15T07:34:49.062Z,5.70
2023-01-15T07:37:17.937Z,4.80
2023-01-15T07:39:46.859Z,4.30
2023-01-15T07:42:34.683Z,4.50
2023-01-15T07:45:22.314Z,4.60
2023-01-15T07:48:10.287Z,4.50
2023-01-15T07:50:39.480Z,4.90
2023-01-15T07:53:08.728Z,4.40
2023-01-15T07:55:37.806Z,4.50
2023-01-15T07:58:06.905Z,4.40
2023-01-15T08:00:37.322Z,4.50
2023-01-15T08:03:07.079Z,5.10
2023-01-15T08:05:35.981Z,7.00
2023-01-15T08:08:05.812Z,9.90
2023-01-15T08:10:54.725Z,8.90
2023-01-15T08:13:42.093Z,22.50
2023-01-15T08:16:11.902Z,10.70
2023-01-15T08:18:41.205Z,13.50
2023-01-15T08:21:15.936Z,11.30
2023-01-15T08:23:46.767Z,10.50
2023-01-15T08:26:15.722Z,9.50
2023-01-15T08:28:44.516Z,13.70
2023-01-15T08:31:13.409Z,15.80
2023-01-15T08:33:42.646Z,11.80
2023-01-15T08:36:11.632Z,9.90
2023-01-15T08:38:40.276Z,10.90
2023-01-15T08:41:09.661Z,7.40
2023-01-15T08:43:38.500Z,9.30
2023-01-15T08:46:08.049Z,5.80
2023-01-15T08:48:37.258Z,6.10
2023-01-15T08:51:10.956Z,5.50
2023-01-15T08:53:40.444Z,5.90
2023-01-15T08:56:14.305Z,6.80
2023-01-15T08:58:43.940Z,9.60
2023-01-15T09:01:16.569Z,9.00
2023-01-15T09:03:47.786Z,8.40
2023-01-15T09:06:16.790Z,9.10
2023-01-15T09:08:46.396Z,9.50
2023-01-15T09:11:15.489Z,8.50
2023-01-15T09:13:47.297Z,6.70
2023-01-15T09:16:17.775Z,9.30
2023-01-15T09:18:47.785Z,6.00
2023-01-15T09:21:16.632Z,6.20
2023-01-15T09:23:46.014Z,7.00
2023-01-15T09:26:39.026Z,6.40
2023-01-15T09:29:09.485Z,5.50
2023-01-15T09:31:39.715Z,5.30
2023-01-15T09:34:09.031Z,6.10
2023-01-15T09:36:41.329Z,6.20
2023-01-15T09:39:11.234Z,9.50
2023-01-15T09:42:25.380Z,8.10
2023-01-15T09:45:10.096Z,6.50
2023-01-15T09:47:47.941Z,6.70
2023-01-15T09:50:40.179Z,6.40
2023-01-15T09:53:36.340Z,5.10
2023-01-15T09:56:06.559Z,5.50
2023-01-15T09:58:41.242Z,5.60
2023-01-15T10:01:20.176Z,5.90
2023-01-15T10:04:02.850Z,6.30
2023-01-15T10:07:20.113Z,6.30
2023-01-15T10:10:07.194Z,5.70
2023-01-15T10:12:41.996Z,5.50
2023-01-15T10:15:14.907Z,6.50
2023-01-15T10:17:51.431Z,13.20
2023-01-15T10:20:45.406Z,6.20
2023-01-15T10:23:41.109Z,6.20
2023-01-15T10:26:18.850Z,6.30
2023-01-15T10:29:18.706Z,6.50
2023-01-15T10:31:52.970Z,6.60
2023-01-15T10:34:30.588Z,6.70
2023-01-15T10:37:04.752Z,6.90
2023-01-15T10:39:33.728Z,6.50
2023-01-15T10:42:31.120Z,9.60
2023-01-15T10:45:15.746Z,8.20
2023-01-15T10:47:50.052Z,21.00
2023-01-15T10:50:27.798Z,12.50
2023-01-15T10:53:00.465Z,10.10
2023-01-15T10:55:59.219Z,10.20
2023-01-15T10:58:38.406Z,5.40
2023-01-15T11:01:17.129Z,6.30
2023-01-15T11:03:47.487Z,6.00
2023-01-15T11:06:22.207Z,6.30
2023-01-15T11:09:09.087Z,5.70
2023-01-15T11:12:01.504Z,6.00
2023-01-15T11:14:58.872Z,5.60
2023-01-15T11:17:57.127Z,6.10
2023-01-15T11:20:28.471Z,5.80
2023-01-15T11:23:10.806Z,5.60
2023-01-15T11:25:50.779Z,6.10
2023-01-15T11:28:40.771Z,5.90
2023-01-15T11:31:12.021Z,8.80
2023-01-15T11:33:44.638Z,7.80
2023-01-15T11:36:23.268Z,14.30
2023-01-15T11:38:53.415Z,9.40
2023-01-15T11:41:23.147Z,7.40
2023-01-15T11:44:17.036Z,7.70
2023-01-15T11:47:14.631Z,6.60
2023-01-15T11:50:13.473Z,10.00
2023-01-15T11:52:57.726Z,7.10
2023-01-15T11:55:29.127Z,6.10
2023-01-15T11:57:58.998Z,7.30
2023-01-15T12:00:33.306Z,6.90
2023-01-15T12:03:15.429Z,6.30
2023-01-15T12:05:55.008Z,5.70
2023-01-15T12:09:14.110Z,6.70
2023-01-15T12:12:01.886Z,8.30
2023-01-15T12:14:46.245Z,7.40
2023-01-15T12:17:28.790Z,6.30
2023-01-15T12:20:07.451Z,6.20
2023-01-15T12:22:52.546Z,6.90
2023-01-15T12:25:44.626Z,7.10
2023-01-15T12:28:19.808Z,10.50
2023-01-15T12:31:20.339Z,9.40
2023-01-15T12:34:02.165Z,6.30
2023-01-15T12:39:42.320Z,6.80
2023-01-15T12:42:36.957Z,5.90
2023-01-15T12:45:29.485Z,8.00
2023-01-15T12:48:13.014Z,6.00
2023-01-15T12:50:49.420Z,6.90
2023-01-15T12:53:28.366Z,5.70
2023-01-15T12:56:18.725Z,10.00
2023-01-15T12:58:52.820Z,5.50
2023-01-15T13:01:29.825Z,4.80
2023-01-15T13:04:18.047Z,4.70
2023-01-15T13:06:56.909Z,4.90
2023-01-15T13:09:43.816Z,4.80
2023-01-15T13:12:17.387Z,14.20
2023-01-15T13:14:47.379Z,5.00
2023-01-15T13:17:31.624Z,4.90
2023-01-15T13:20:24.119Z,6.60
2023-01-15T13:23:05.305Z,5.60
2023-01-15T13:25:45.534Z,5.50
2023-01-15T13:28:42.346Z,6.60
2023-01-15T13:31:24.318Z,5.50
2023-01-15T13:33:57.876Z,5.30
2023-01-15T13:36:39.228Z,4.90
2023-01-15T13:39:19.201Z,5.10
2023-01-15T13:42:11.984Z,5.20
2023-01-15T13:44:54.058Z,4.80
2023-01-15T13:47:29.407Z,6.70
2023-01-15T13:50:17.396Z,6.70
2023-01-15T13:52:47.636Z,5.00
2023-01-15T13:55:18.477Z,8.20
2023-01-15T13:57:50.142Z,5.80
2023-01-15T14:00:38.695Z,7.30
2023-01-15T14:03:29.909Z,4.80
2023-01-15T14:06:10.244Z,6.10
2023-01-15T14:08:45.331Z,6.60
2023-01-15T14:11:52.760Z,5.20
2023-01-15T14:14:40.064Z,4.70
2023-01-15T14:17:21.136Z,5.00
2023-01-15T14:20:14.932Z,4.90
2023-01-15T14:23:10.679Z,3.60
2023-01-15T14:26:21.586Z,3.20
2023-01-15T14:29:03.092Z,2.80
2023-01-15T14:31:58.854Z,2.30
2023-01-15T14:34:31.294Z,2.10
2023-01-15T14:37:17.560Z,2.30
2023-01-15T14:39:58.984Z,2.50
2023-01-15T14:42:57.193Z,2.10
2023-01-15T14:45:37.245Z,1.80
2023-01-15T14:48:19.438Z,2.00
2023-01-15T14:50:50.547Z,1.90
2023-01-15T14:53:31.549Z,3.40
2023-01-15T14:56:36.933Z,2.20
2023-01-15T15:00:03.662Z,1.60
2023-01-15T15:02:39.608Z,1.70
2023-01-15T15:05:18.395Z,1.70
2023-01-15T15:07:53.792Z,2.20
2023-01-15T15:10:31.999Z,4.00
2023-01-15T15:13:28.421Z,2.30
2023-01-15T15:16:00.915Z,1.80
2023-01-15T15:18:40.044Z,3.60
2023-01-15T15:21:23.015Z,3.10
2023-01-15T15:24:06.459Z,2.00
2023-01-15T15:26:37.559Z,2.60
2023-01-15T15:29:14.981Z,2.00
2023-01-15T15:31:47.101Z,2.40
2023-01-15T15:34:26.479Z,2.10
2023-01-15T15:36:58.965Z,2.20
2023-01-15T15:39:51.418Z,1.90
2023-01-15T15:42:48.275Z,2.30
2023-01-15T15:45:47.986Z,2.30
2023-01-15T15:48:41.901Z,1.80
2023-01-15T15:51:32.543Z,2.20
2023-01-15T15:54:12.420Z,1.60
2023-01-15T15:56:48.716Z,2.00
2023-01-15T15:59:29.047Z,1.50
2023-01-15T16:02:08.611Z,1.70
2023-01-15T16:04:38.622Z,2.40
2023-01-15T16:07:21.339Z,2.20
2023-01-15T16:09:54.684Z,2.30
2023-01-15T16:12:25.697Z,4.10
2023-01-15T16:14:56.928Z,6.00
2023-01-15T16:17:30.073Z,4.60
2023-01-15T16:20:00.424Z,2.60
2023-01-15T16:22:29.500Z,2.60
2023-01-15T16:24:59.490Z,2.30
2023-01-15T16:27:36.311Z,2.70
2023-01-15T16:30:06.877Z,3.50
2023-01-15T16:32:37.386Z,3.60
2023-01-15T16:35:19.812Z,2.90
2023-01-15T16:37:55.019Z,2.20
2023-01-15T16:40:34.178Z,2.20
2023-01-15T16:43:06.917Z,2.80
2023-01-15T16:45:38.785Z,7.90
2023-01-15T16:48:30.458Z,3.30
2023-01-15T16:51:00.432Z,2.50
2023-01-15T16:53:41.185Z,2.50
2023-01-15T16:56:48.804Z,2.70
2023-01-15T16:59:42.308Z,3.90
2023-01-15T17:02:15.636Z,2.80
2023-01-15T17:04:46.737Z,3.30
2023-01-15T17:07:26.364Z,3.50
2023-01-15T17:10:01.069Z,2.90
2023-01-15T17:12:40.837Z,3.20
2023-01-15T17:15:20.757Z,3.10
2023-01-15T17:17:53.555Z,3.00
2023-01-15T17:20:28.300Z,3.30
2023-01-15T17:22:58.654Z,3.30
2023-01-15T17:25:34.498Z,4.10
2023-01-15T17:28:05.433Z,3.40
2023-01-15T17:30:36.371Z,2.80
2023-01-15T17:33:09.928Z,3.40
2023-01-15T17:35:48.999Z,3.30
2023-01-15T17:38:19.366Z,3.20
2023-01-15T17:40:53.761Z,3.70
2023-01-15T17:43:23.857Z,3.60
2023-01-15T17:45:55.518Z,3.90
2023-01-15T17:48:25.398Z,4.30
2023-01-15T17:50:56.497Z,4.50
2023-01-15T17:53:25.884Z,4.80
2023-01-15T17:56:14.727Z,4.50
2023-01-15T17:59:03.588Z,4.20
2023-01-15T18:02:06.977Z,3.70
2023-01-15T18:05:03.091Z,3.00
2023-01-15T18:07:39.825Z,3.70
2023-01-15T18:10:20.419Z,3.20
2023-01-15T18:12:53.403Z,3.80
2023-01-15T18:15:23.597Z,3.60
2023-01-15T18:17:53.760Z,4.00
2023-01-15T18:20:23.435Z,4.20
2023-01-15T18:22:52.699Z,3.50
2023-01-15T18:25:21.604Z,4.60
2023-01-15T18:27:51.753Z,5.00
2023-01-15T18:30:21.375Z,6.20
2023-01-15T18:32:50.386Z,6.10
2023-01-15T18:35:19.926Z,4.90
2023-01-15T18:37:49.070Z,5.80
2023-01-15T18:40:18.115Z,5.50
2023-01-15T18:43:05.914Z,5.50
2023-01-15T18:45:53.595Z,5.40
2023-01-15T18:48:22.927Z,6.60
2023-01-15T18:50:53.391Z,4.70
2023-01-15T18:53:23.699Z,5.00
2023-01-15T18:55:52.944Z,4.50
2023-01-15T18:58:21.885Z,5.10
2023-01-15T19:00:51.790Z,5.70
2023-01-15T19:03:21.354Z,4.90
2023-01-15T19:05:51.450Z,4.50
2023-01-15T19:08:21.416Z,5.40
2023-01-15T19:10:51.523Z,5.00
2023-01-15T19:13:20.684Z,5.00
2023-01-15T19:16:22.379Z,5.80
2023-01-15T19:18:55.151Z,5.00
2023-01-15T19:21:25.437Z,5.20
2023-01-15T19:23:55.489Z,5.20
2023-01-15T19:26:24.694Z,6.40
2023-01-15T19:28:53.922Z,8.20
2023-01-15T19:31:39.816Z,6.30
2023-01-15T19:34:33.221Z,7.90
2023-01-15T19:37:01.949Z,6.20
2023-01-15T19:39:32.396Z,6.20
2023-01-15T19:42:20.601Z,4.60
2023-01-15T19:45:09.543Z,4.10
2023-01-15T19:48:00.306Z,4.20
2023-01-15T19:50:35.881Z,4.80
2023-01-15T19:53:07.724Z,4.60
2023-01-15T19:55:39.599Z,4.00
2023-01-15T19:58:12.105Z,4.20
2023-01-15T20:00:44.814Z,3.80
2023-01-15T20:03:15.224Z,3.60
2023-01-15T20:05:47.869Z,4.10
2023-01-15T20:08:18.235Z,3.90
2023-01-15T20:10:51.423Z,3.70
2023-01-15T20:13:41.648Z,4.90
2023-01-15T20:16:18.722Z,4.50
2023-01-15T20:18:52.565Z,3.90
2023-01-15T20:21:23.828Z,3.40
2023-01-15T20:23:53.564Z,3.20
2023-01-15T20:26:25.368Z,3.20
2023-01-15T20:28:54.525Z,3.20
2023-01-15T20:31:24.062Z,2.90
2023-01-15T20:33:55.266Z,3.20
2023-01-15T20:36:24.674Z,3.20
2023-01-15T20:38:53.863Z,3.80
2023-01-15T20:41:42.131Z,3.70
2023-01-15T20:44:31.130Z,3.70
2023-01-15T20:47:21.687Z,3.70
2023-01-15T20:49:52.061Z,3.70
2023-01-15T20:52:22.112Z,3.80
2023-01-15T20:54:52.028Z,2.90
2023-01-15T20:57:21.212Z,3.10
2023-01-15T20:59:50.698Z,2.50
2023-01-15T21:02:20.026Z,3.00
2023-01-15T21:04:49.766Z,2.80
2023-01-15T21:07:19.758Z,2.70
2023-01-15T21:09:49.672Z,2.80
2023-01-15T21:12:19.196Z,3.00
2023-01-15T21:14:48.470Z,2.40
2023-01-15T21:17:18.911Z,2.40
2023-01-15T21:19:48.881Z,2.50
2023-01-15T21:22:18.798Z,2.40
2023-01-15T21:24:51.326Z,2.60
2023-01-15T21:27:20.538Z,2.80
2023-01-15T21:29:49.782Z,2.80
2023-01-15T21:32:19.147Z,2.50
2023-01-15T21:34:47.996Z,3.50
2023-01-15T21:37:17.947Z,3.00
2023-01-15T21:39:46.575Z,3.50
2023-01-15T21:42:40.289Z,3.10
2023-01-15T21:45:11.587Z,3.80
2023-01-15T21:47:42.186Z,4.00
2023-01-15T21:50:11.024Z,3.00
2023-01-15T21:52:40.122Z,2.90
2023-01-15T21:55:09.464Z,2.90
2023-01-15T21:57:38.726Z,3.50
2023-01-15T22:00:09.489Z,3.20
2023-01-15T22:02:39.614Z,3.30
2023-01-15T22:05:08.895Z,3.10
2023-01-15T22:07:38.323Z,3.60
2023-01-15T22:10:08.214Z,3.80
2023-01-15T22:12:42.688Z,3.00
2023-01-15T22:15:12.802Z,3.10
2023-01-15T22:17:42.893Z,3.50
2023-01-15T22:20:13.393Z,4.60
2023-01-15T22:22:42.811Z,4.10
2023-01-15T22:25:15.988Z,3.60
2023-01-15T22:27:45.134Z,3.50
2023-01-15T22:30:16.448Z,3.60
2023-01-15T22:32:46.030Z,3.50
2023-01-15T22:35:15.989Z,3.40
2023-01-15T22:37:45.080Z,3.20
2023-01-15T22:40:14.290Z,3.20
2023-01-15T22:42:44.451Z,3.30
2023-01-15T22:45:13.559Z,3.20
2023-01-15T22:47:42.720Z,3.20
2023-01-15T22:50:12.991Z,3.20
2023-01-15T22:52:42.627Z,3.60
2023-01-15T22:55:12.996Z,4.60
2023-01-15T22:57:42.303Z,3.40
2023-01-15T23:00:11.755Z,3.80
2023-01-15T23:02:56.489Z,3.50
2023-01-15T23:05:25.845Z,3.30
2023-01-15T23:07:55.973Z,3.50
2023-01-15T23:10:25.068Z,3.40
2023-01-15T23:12:54.634Z,3.10
2023-01-15T23:15:23.497Z,3.10
2023-01-15T23:17:52.584Z,3.30
2023-01-15T23:20:21.521Z,3.20
2023-01-15T23:22:50.917Z,3.00
2023-01-15T23:25:19.800Z,3.10
2023-01-15T23:27:49.243Z,3.10
2023-01-15T23:30:18.703Z,3.10
2023-01-15T23:32:47.521Z,2.90
2023-01-15T23:35:16.465Z,3.60
2023-01-15T23:37:45.445Z,2.90
2023-01-15T23:40:14.244Z,3.00
2023-01-15T23:43:02.175Z,2.70
2023-01-15T23:45:50.009Z,2.90
2023-01-15T23:48:20.466Z,3.00
2023-01-15T23:50:50.639Z,3.50
2023-01-15T23:53:19.233Z,3.60
2023-01-15T23:55:48.021Z,3.20
2023-01-15T23:58:16.905Z,2.80
